createdAt,value
2022-12-06T00:01:10.770Z,10.10
2022-12-06T00:03:40.491Z,9.45
2022-12-06T00:06:10.907Z,11.45
2022-12-06T00:08:39.788Z,8.63
2022-12-06T00:11:10.032Z,7.97
2022-12-06T00:13:40.741Z,7.20
2022-12-06T00:16:12.015Z,6.05
2022-12-06T00:18:41.679Z,5.75
2022-12-06T00:23:39.117Z,5.90
2022-12-06T00:26:08.905Z,6.82
2022-12-06T00:28:39.442Z,5.68
2022-12-06T00:31:09.624Z,6.00
2022-12-06T00:33:38.786Z,6.25
2022-12-06T00:36:09.391Z,5.30
2022-12-06T00:38:37.567Z,2.85
2022-12-06T00:41:08.316Z,3.55
2022-12-06T00:43:37.670Z,2.53
2022-12-06T00:46:09.829Z,2.65
2022-12-06T00:48:37.994Z,2.47
2022-12-06T00:51:06.639Z,1.73
2022-12-06T00:53:34.833Z,1.93
2022-12-06T00:56:03.340Z,1.80
2022-12-06T00:58:31.686Z,2.20
2022-12-06T01:01:10.435Z,2.85
2022-12-06T01:03:38.939Z,2.45
2022-12-06T01:06:08.763Z,3.88
2022-12-06T01:08:37.858Z,4.53
2022-12-06T01:11:06.440Z,4.40
2022-12-06T01:13:35.073Z,5.00
2022-12-06T01:16:06.850Z,4.83
2022-12-06T01:18:36.777Z,2.90
2022-12-06T01:21:06.170Z,3.25
2022-12-06T01:23:34.530Z,3.97
2022-12-06T01:26:02.840Z,4.22
2022-12-06T01:28:31.410Z,4.80
2022-12-06T01:30:59.560Z,5.13
2022-12-06T01:33:27.900Z,4.22
2022-12-06T01:35:57.530Z,4.88
2022-12-06T01:40:54.388Z,3.33
2022-12-06T01:43:38.041Z,3.25
2022-12-06T01:46:19.204Z,3.72
2022-12-06T01:48:48.737Z,4.28
2022-12-06T01:51:19.254Z,3.72
2022-12-06T01:53:49.752Z,2.47
2022-12-06T01:56:18.666Z,5.82
2022-12-06T01:58:48.030Z,1.85
2022-12-06T02:01:16.567Z,1.35
2022-12-06T02:03:47.542Z,2.05
2022-12-06T02:06:18.611Z,1.60
2022-12-06T02:08:48.109Z,1.67
2022-12-06T02:13:44.526Z,1.30
2022-12-06T02:16:33.390Z,1.80
2022-12-06T02:19:15.580Z,1.52
2022-12-06T02:21:52.869Z,1.45
2022-12-06T02:24:50.318Z,1.02
2022-12-06T02:27:51.545Z,1.25
2022-12-06T02:30:43.210Z,0.95
2022-12-06T02:33:17.125Z,0.75
2022-12-06T02:35:50.687Z,0.60
2022-12-06T02:38:25.390Z,0.65
2022-12-06T02:40:59.986Z,0.70
2022-12-06T02:43:34.125Z,0.90
2022-12-06T02:46:05.842Z,0.40
2022-12-06T02:48:35.461Z,0.85
2022-12-06T02:53:38.127Z,0.52
2022-12-06T02:56:07.118Z,0.32
2022-12-06T02:58:36.662Z,0.95
2022-12-06T03:04:01.744Z,0.77
2022-12-06T03:06:53.575Z,0.80
2022-12-06T03:09:42.024Z,0.70
2022-12-06T03:12:16.238Z,0.50
2022-12-06T03:14:50.606Z,1.05
2022-12-06T03:17:25.379Z,0.60
2022-12-06T03:19:59.718Z,0.98
2022-12-06T03:22:38.267Z,3.85
2022-12-06T03:25:10.588Z,0.50
2022-12-06T03:27:41.213Z,1.13
2022-12-06T03:30:12.863Z,1.95
2022-12-06T03:32:46.356Z,0.75
2022-12-06T03:35:18.893Z,1.98
2022-12-06T03:37:52.223Z,1.23
2022-12-06T03:40:22.421Z,0.95
2022-12-06T03:42:51.864Z,0.70
2022-12-06T03:45:21.776Z,1.52
2022-12-06T03:47:56.917Z,0.30
2022-12-06T03:50:31.738Z,0.40
2022-12-06T03:53:02.133Z,0.30
2022-12-06T03:55:30.355Z,1.40
2022-12-06T03:57:58.443Z,0.30
2022-12-06T04:00:26.685Z,0.30
2022-12-06T04:02:56.146Z,0.40
2022-12-06T04:05:24.467Z,0.28
2022-12-06T04:07:52.609Z,0.30
2022-12-06T04:10:20.824Z,0.30
2022-12-06T04:13:01.409Z,0.43
2022-12-06T04:15:31.455Z,0.20
2022-12-06T04:18:14.002Z,0.40
2022-12-06T04:21:02.577Z,0.40
2022-12-06T04:23:32.316Z,0.55
2022-12-06T04:26:00.492Z,1.33
2022-12-06T04:28:46.239Z,1.10
2022-12-06T04:31:32.193Z,1.13
2022-12-06T04:34:19.352Z,0.82
2022-12-06T04:37:05.802Z,0.52
2022-12-06T04:39:34.599Z,0.45
2022-12-06T04:42:20.738Z,0.38
2022-12-06T04:44:49.096Z,0.40
2022-12-06T04:47:17.235Z,0.98
2022-12-06T04:49:46.979Z,0.60
2022-12-06T04:52:15.283Z,0.60
2022-12-06T04:54:43.795Z,0.90
2022-12-06T04:57:13.806Z,0.55
2022-12-06T04:59:43.569Z,0.73
2022-12-06T05:02:14.096Z,0.60
2022-12-06T05:04:42.348Z,0.50
2022-12-06T05:07:12.129Z,1.60
2022-12-06T05:09:40.300Z,0.40
2022-12-06T05:12:08.951Z,0.40
2022-12-06T05:14:37.142Z,1.13
2022-12-06T05:17:05.223Z,1.08
2022-12-06T05:19:33.479Z,0.85
2022-12-06T05:22:01.707Z,0.73
2022-12-06T05:24:31.452Z,1.10
2022-12-06T05:26:59.577Z,1.00
2022-12-06T05:29:27.740Z,1.08
2022-12-06T05:31:56.044Z,0.93
2022-12-06T05:34:25.015Z,1.35
2022-12-06T05:36:53.296Z,0.88
2022-12-06T05:39:22.337Z,1.30
2022-12-06T05:41:51.877Z,1.40
2022-12-06T05:46:48.760Z,1.10
2022-12-06T05:49:16.966Z,1.48
2022-12-06T05:51:45.419Z,1.23
2022-12-06T05:54:13.620Z,1.20
2022-12-06T05:56:41.848Z,1.27
2022-12-06T05:59:12.041Z,1.65
2022-12-06T06:01:40.159Z,4.38
2022-12-06T06:04:08.695Z,3.40
2022-12-06T06:06:36.870Z,2.33
2022-12-06T06:09:05.053Z,2.08
2022-12-06T06:11:33.209Z,3.03
2022-12-06T06:14:01.503Z,4.75
2022-12-06T06:16:32.758Z,3.47
2022-12-06T06:19:01.745Z,3.72
2022-12-06T06:21:30.089Z,3.90
2022-12-06T06:23:58.863Z,3.95
2022-12-06T06:26:27.198Z,4.45
2022-12-06T06:28:55.292Z,6.53
2022-12-06T06:31:23.431Z,4.88
2022-12-06T06:33:53.093Z,4.65
2022-12-06T06:38:49.103Z,4.05
2022-12-06T06:41:17.303Z,7.13
2022-12-06T06:43:46.602Z,3.17
2022-12-06T06:46:14.844Z,3.42
2022-12-06T06:48:42.969Z,2.92
2022-12-06T06:51:14.819Z,5.95
2022-12-06T06:53:42.934Z,87.93
2022-12-06T06:56:11.209Z,34.08
2022-12-06T06:58:39.373Z,201.23
2022-12-06T07:01:09.420Z,132.73
2022-12-06T07:03:37.538Z,28.60
2022-12-06T07:06:08.822Z,40.92
2022-12-06T07:08:39.658Z,645.63
2022-12-06T07:11:07.856Z,411.52
2022-12-06T07:13:37.405Z,218.55
2022-12-06T07:18:34.657Z,29.98
2022-12-06T07:21:05.051Z,39.65
2022-12-06T07:23:34.887Z,51.35
2022-12-06T07:26:06.213Z,34.53
2022-12-06T07:28:36.720Z,41.13
2022-12-06T07:31:12.751Z,53.58
2022-12-06T07:33:42.669Z,44.30
2022-12-06T07:36:13.711Z,51.35
2022-12-06T07:38:43.175Z,53.92
2022-12-06T07:41:31.679Z,63.30
2022-12-06T07:44:18.612Z,57.93
2022-12-06T07:46:47.893Z,65.82
2022-12-06T07:49:16.860Z,58.85
2022-12-06T07:51:45.638Z,56.03
2022-12-06T07:54:14.249Z,42.33
2022-12-06T07:56:44.402Z,58.57
2022-12-06T07:59:13.109Z,52.85
2022-12-06T08:01:41.417Z,49.63
2022-12-06T08:04:09.742Z,39.42
2022-12-06T08:06:38.667Z,38.00
2022-12-06T08:09:07.675Z,34.53
2022-12-06T08:11:36.596Z,24.38
2022-12-06T08:14:06.469Z,18.02
2022-12-06T08:16:34.727Z,21.58
2022-12-06T08:19:03.327Z,13.55
2022-12-06T08:21:31.563Z,13.15
2022-12-06T08:23:59.684Z,11.05
2022-12-06T08:26:27.849Z,10.18
2022-12-06T08:28:55.954Z,7.93
2022-12-06T08:31:26.041Z,6.57
2022-12-06T08:33:54.270Z,7.63
2022-12-06T08:36:24.549Z,6.43
2022-12-06T08:38:53.407Z,6.97
2022-12-06T08:41:40.956Z,5.13
2022-12-06T08:44:11.202Z,6.43
2022-12-06T08:46:41.347Z,5.20
2022-12-06T08:49:10.211Z,6.32
2022-12-06T08:51:38.950Z,7.65
2022-12-06T08:54:08.209Z,6.47
2022-12-06T08:56:38.307Z,6.18
2022-12-06T08:59:07.071Z,5.07
2022-12-06T09:01:38.038Z,5.05
2022-12-06T09:04:09.689Z,6.45
2022-12-06T09:06:39.834Z,4.95
2022-12-06T09:09:08.883Z,6.88
2022-12-06T09:11:37.341Z,5.50
2022-12-06T09:14:05.689Z,5.10
2022-12-06T09:16:34.110Z,5.55
2022-12-06T09:19:02.925Z,6.57
2022-12-06T09:21:34.268Z,5.55
2022-12-06T09:24:02.627Z,6.03
2022-12-06T09:26:30.858Z,6.20
2022-12-06T09:29:00.100Z,6.97
2022-12-06T09:31:28.638Z,6.60
2022-12-06T09:33:56.949Z,6.53
2022-12-06T09:36:27.742Z,8.02
2022-12-06T09:39:01.672Z,9.90
2022-12-06T09:42:17.367Z,9.90
2022-12-06T09:45:10.474Z,10.52
2022-12-06T09:47:50.532Z,15.52
2022-12-06T09:50:27.823Z,11.60
2022-12-06T09:53:08.896Z,24.58
2022-12-06T09:55:51.636Z,20.30
2022-12-06T09:58:30.528Z,12.07
2022-12-06T10:01:09.494Z,8.95
2022-12-06T10:04:12.099Z,13.07
2022-12-06T10:06:45.681Z,11.95
2022-12-06T10:09:26.599Z,15.93
2022-12-06T10:12:13.183Z,14.82
2022-12-06T10:15:00.502Z,14.32
2022-12-06T10:17:41.048Z,22.50
2022-12-06T10:20:16.155Z,17.65
2022-12-06T10:22:55.555Z,16.15
2022-12-06T10:25:27.021Z,15.35
2022-12-06T10:28:09.832Z,14.82
2022-12-06T10:30:45.709Z,13.82
2022-12-06T10:33:20.850Z,12.38
2022-12-06T10:35:54.196Z,13.15
2022-12-06T10:38:28.602Z,11.07
2022-12-06T10:41:06.341Z,11.70
2022-12-06T10:43:43.501Z,11.05
2022-12-06T10:46:35.229Z,7.85
2022-12-06T10:49:08.593Z,17.05
2022-12-06T10:51:42.991Z,7.40
2022-12-06T10:54:21.215Z,7.32
2022-12-06T10:56:52.646Z,5.28
2022-12-06T10:59:37.722Z,9.10
2022-12-06T11:02:23.690Z,6.63
2022-12-06T11:04:56.674Z,13.13
2022-12-06T11:07:29.494Z,15.77
2022-12-06T11:09:58.580Z,8.38
2022-12-06T11:12:31.656Z,6.47
2022-12-06T11:15:08.523Z,6.82
2022-12-06T11:17:42.528Z,5.00
2022-12-06T11:20:26.915Z,7.10
2022-12-06T11:23:12.246Z,4.43
2022-12-06T11:25:54.655Z,4.50
2022-12-06T11:28:35.759Z,3.60
2022-12-06T11:31:12.537Z,3.13
2022-12-06T11:33:40.874Z,2.40
2022-12-06T11:36:10.015Z,4.07
2022-12-06T11:38:41.847Z,2.97
2022-12-06T11:41:14.882Z,3.22
2022-12-06T11:43:43.577Z,6.63
2022-12-06T11:46:15.004Z,3.75
2022-12-06T11:48:44.440Z,3.35
2022-12-06T11:51:18.166Z,3.42
2022-12-06T11:54:06.072Z,2.00
2022-12-06T11:56:38.155Z,2.92
2022-12-06T11:59:26.371Z,2.50
2022-12-06T12:01:57.994Z,2.38
2022-12-06T12:04:34.439Z,8.27
2022-12-06T12:07:06.379Z,3.83
2022-12-06T12:09:37.970Z,4.28
2022-12-06T12:12:14.081Z,3.53
2022-12-06T12:14:49.538Z,3.78
2022-12-06T12:17:24.976Z,4.85
2022-12-06T12:19:58.999Z,4.00
2022-12-06T12:22:35.239Z,3.08
2022-12-06T12:25:23.349Z,7.22
2022-12-06T12:27:53.051Z,6.43
2022-12-06T12:33:15.118Z,4.25
2022-12-06T12:35:45.665Z,3.47
2022-12-06T12:38:33.471Z,7.65
2022-12-06T12:41:05.226Z,4.68
2022-12-06T12:43:35.401Z,5.03
2022-12-06T12:46:09.081Z,5.25
2022-12-06T12:48:39.822Z,8.60
2022-12-06T12:51:23.224Z,3.92
2022-12-06T12:53:56.468Z,5.57
2022-12-06T12:56:24.900Z,3.95
2022-12-06T12:58:55.842Z,3.72
2022-12-06T13:01:34.507Z,3.97
2022-12-06T13:04:13.619Z,6.15
2022-12-06T13:06:49.499Z,4.43
2022-12-06T13:09:25.373Z,6.13
2022-12-06T13:11:57.813Z,5.40
2022-12-06T13:14:28.134Z,4.50
2022-12-06T13:16:58.893Z,5.47
2022-12-06T13:19:35.606Z,5.85
2022-12-06T13:22:05.974Z,8.68
2022-12-06T13:24:37.513Z,7.57
2022-12-06T13:27:14.204Z,7.22
2022-12-06T13:29:46.562Z,11.93
2022-12-06T13:32:17.499Z,6.80
2022-12-06T13:34:51.606Z,7.22
2022-12-06T13:37:29.435Z,10.25
2022-12-06T13:39:58.366Z,10.35
2022-12-06T13:42:45.534Z,11.98
2022-12-06T13:45:39.003Z,10.77
2022-12-06T13:48:45.804Z,11.80
2022-12-06T13:51:47.611Z,9.82
2022-12-06T13:54:37.073Z,10.13
2022-12-06T13:57:23.752Z,11.55
2022-12-06T13:59:52.655Z,9.40
2022-12-06T14:02:54.258Z,9.90
2022-12-06T14:08:33.315Z,9.93
2022-12-06T14:11:19.455Z,7.43
2022-12-06T14:13:49.902Z,8.00
2022-12-06T14:16:23.915Z,9.10
2022-12-06T14:18:54.651Z,9.60
2022-12-06T14:21:26.966Z,7.47
2022-12-06T14:23:56.621Z,7.78
2022-12-06T14:26:27.107Z,11.93
2022-12-06T14:28:57.511Z,12.15
2022-12-06T14:31:29.730Z,12.32
2022-12-06T14:33:58.815Z,14.02
2022-12-06T14:36:30.334Z,13.93
2022-12-06T14:39:07.506Z,21.25
2022-12-06T14:41:55.668Z,13.60
2022-12-06T14:44:30.529Z,12.02
2022-12-06T14:46:59.563Z,19.42
2022-12-06T14:49:47.397Z,15.40
2022-12-06T14:52:24.728Z,18.15
2022-12-06T14:55:14.348Z,17.63
2022-12-06T14:57:46.650Z,15.25
2022-12-06T15:00:25.800Z,11.85
2022-12-06T15:03:22.835Z,10.48
2022-12-06T15:05:57.494Z,11.23
2022-12-06T15:08:34.224Z,11.63
2022-12-06T15:11:06.058Z,9.60
2022-12-06T15:13:33.591Z,12.05
2022-12-06T15:16:13.944Z,11.18
2022-12-06T15:18:45.905Z,13.40
2022-12-06T15:21:15.702Z,12.35
2022-12-06T15:23:49.616Z,12.75
2022-12-06T15:26:21.896Z,13.43
2022-12-06T15:28:51.425Z,12.13
2022-12-06T15:36:19.128Z,15.30
2022-12-06T15:38:47.343Z,16.25
2022-12-06T15:41:19.553Z,17.48
2022-12-06T15:43:48.691Z,12.35
2022-12-06T15:46:20.553Z,14.38
2022-12-06T15:48:48.834Z,15.02
2022-12-06T15:51:20.866Z,15.95
2022-12-06T15:53:50.676Z,12.00
2022-12-06T15:58:52.015Z,14.35
2022-12-06T16:03:49.800Z,10.60
2022-12-06T16:06:21.721Z,13.43
2022-12-06T16:08:50.020Z,23.08
2022-12-06T16:11:21.506Z,19.75
2022-12-06T16:13:50.679Z,23.08
2022-12-06T16:16:20.440Z,22.20
2022-12-06T16:18:49.255Z,28.38
2022-12-06T16:21:21.753Z,27.17
2022-12-06T16:24:17.454Z,30.00
2022-12-06T16:26:47.799Z,22.25
2022-12-06T16:29:17.736Z,24.33
2022-12-06T16:31:46.597Z,19.85
2022-12-06T16:34:15.611Z,20.80
2022-12-06T16:37:01.522Z,19.13
2022-12-06T16:39:31.423Z,23.67
2022-12-06T16:42:01.180Z,32.20
2022-12-06T16:44:29.718Z,34.55
2022-12-06T16:46:58.170Z,38.83
2022-12-06T16:49:46.499Z,39.80
2022-12-06T16:52:15.444Z,37.63
2022-12-06T16:54:44.037Z,42.88
2022-12-06T16:57:14.738Z,56.17
2022-12-06T16:59:43.383Z,53.35
2022-12-06T17:02:26.538Z,46.40
2022-12-06T17:04:55.032Z,41.60
2022-12-06T17:07:23.595Z,30.02
2022-12-06T17:09:51.800Z,27.87
2022-12-06T17:12:21.740Z,60.47
2022-12-06T17:14:49.904Z,43.40
2022-12-06T17:17:21.368Z,33.05
2022-12-06T17:19:50.652Z,29.20
2022-12-06T17:22:19.871Z,31.77
2022-12-06T17:24:48.216Z,29.30
2022-12-06T17:27:18.412Z,26.35
2022-12-06T17:29:47.986Z,23.52
2022-12-06T17:34:44.326Z,25.60
2022-12-06T17:37:12.460Z,23.75
2022-12-06T17:39:40.835Z,24.08
2022-12-06T17:42:26.438Z,22.10
2022-12-06T17:44:56.171Z,20.77
2022-12-06T17:47:24.405Z,26.83
2022-12-06T17:49:52.761Z,27.00
2022-12-06T17:52:20.913Z,23.40
2022-12-06T17:54:49.156Z,25.25
2022-12-06T17:57:18.711Z,24.85
2022-12-06T17:59:48.509Z,23.55
2022-12-06T18:02:20.204Z,22.35
2022-12-06T18:04:48.806Z,26.00
2022-12-06T18:07:18.281Z,22.73
2022-12-06T18:09:46.733Z,19.95
2022-12-06T18:12:16.268Z,28.75
2022-12-06T18:17:13.122Z,41.22
2022-12-06T18:19:46.665Z,47.72
2022-12-06T18:22:15.493Z,43.05
2022-12-06T18:24:44.826Z,38.15
2022-12-06T18:27:13.448Z,36.95
2022-12-06T18:29:41.643Z,34.30
2022-12-06T18:32:10.117Z,27.50
2022-12-06T18:34:38.429Z,25.08
2022-12-06T18:37:07.912Z,22.85
2022-12-06T18:39:36.168Z,24.65
2022-12-06T18:42:04.325Z,26.80
2022-12-06T18:44:32.501Z,24.73
2022-12-06T18:47:00.677Z,30.25
2022-12-06T18:49:29.070Z,26.98
2022-12-06T18:51:57.145Z,27.83
2022-12-06T18:54:28.207Z,26.75
2022-12-06T18:56:58.330Z,31.33
2022-12-06T18:59:28.006Z,27.90
2022-12-06T19:01:56.877Z,30.33
2022-12-06T19:04:25.174Z,39.63
2022-12-06T19:06:54.463Z,34.03
2022-12-06T19:09:23.574Z,26.73
2022-12-06T19:11:53.138Z,35.55
2022-12-06T19:16:52.647Z,34.38
2022-12-06T19:21:51.106Z,35.75
2022-12-06T19:24:21.647Z,29.50
2022-12-06T19:26:53.385Z,29.00
2022-12-06T19:29:22.129Z,24.17
2022-12-06T19:31:50.725Z,28.67
2022-12-06T19:34:20.539Z,23.67
2022-12-06T19:36:50.371Z,21.25
2022-12-06T19:39:19.425Z,20.40
2022-12-06T19:42:05.367Z,23.27
2022-12-06T19:44:35.437Z,28.55
2022-12-06T19:47:03.669Z,29.80
2022-12-06T19:49:31.798Z,26.10
2022-12-06T19:51:59.916Z,24.50
2022-12-06T19:54:30.197Z,27.17
2022-12-06T19:56:59.848Z,25.35
2022-12-06T19:59:29.932Z,24.70
2022-12-06T20:01:59.781Z,38.50
2022-12-06T20:04:29.784Z,49.25
2022-12-06T20:06:58.582Z,44.90
2022-12-06T20:09:29.146Z,33.90
2022-12-06T20:12:02.113Z,32.80
2022-12-06T20:14:31.823Z,28.40
2022-12-06T20:17:01.557Z,24.95
2022-12-06T20:19:30.424Z,23.00
2022-12-06T20:21:58.605Z,25.08
2022-12-06T20:24:27.022Z,28.35
2022-12-06T20:26:56.786Z,50.75
2022-12-06T20:29:27.020Z,74.30
2022-12-06T20:31:58.017Z,86.60
2022-12-06T20:34:29.503Z,75.53
2022-12-06T20:36:57.887Z,45.85
2022-12-06T20:39:28.657Z,55.40
2022-12-06T20:41:57.012Z,54.72
2022-12-06T20:44:25.179Z,53.47
2022-12-06T20:46:54.274Z,57.30
2022-12-06T20:49:22.461Z,63.38
2022-12-06T20:51:53.663Z,83.78
2022-12-06T20:54:23.034Z,93.28
2022-12-06T20:56:53.446Z,98.47
2022-12-06T20:59:22.107Z,80.05
2022-12-06T21:01:50.641Z,32.33
2022-12-06T21:04:18.907Z,43.25
2022-12-06T21:06:47.136Z,37.10
2022-12-06T21:09:17.049Z,36.20
2022-12-06T21:11:45.138Z,32.13
2022-12-06T21:14:14.854Z,29.42
2022-12-06T21:16:44.056Z,29.17
2022-12-06T21:19:14.374Z,31.88
2022-12-06T21:21:46.194Z,28.30
2022-12-06T21:24:17.498Z,31.75
2022-12-06T21:26:45.749Z,24.92
2022-12-06T21:29:16.970Z,30.38
2022-12-06T21:31:45.946Z,21.80
2022-12-06T21:34:14.384Z,18.13
2022-12-06T21:36:43.000Z,23.45
2022-12-06T21:39:12.843Z,28.20
2022-12-06T21:41:43.066Z,22.70
2022-12-06T21:44:11.210Z,25.27
2022-12-06T21:46:39.547Z,24.52
2022-12-06T21:49:08.024Z,24.25
2022-12-06T21:51:36.133Z,25.25
2022-12-06T21:54:04.566Z,25.10
2022-12-06T21:56:34.085Z,28.17
2022-12-06T22:01:32.754Z,32.75
2022-12-06T22:06:31.509Z,30.08
2022-12-06T22:09:01.877Z,28.58
2022-12-06T22:11:30.929Z,29.50
2022-12-06T22:13:59.970Z,26.67
2022-12-06T22:16:30.276Z,29.83
2022-12-06T22:18:58.536Z,28.52
2022-12-06T22:21:29.044Z,28.25
2022-12-06T22:23:58.560Z,32.50
2022-12-06T22:28:57.123Z,33.08
2022-12-06T22:31:26.978Z,29.98
2022-12-06T22:33:58.564Z,28.67
2022-12-06T22:36:27.661Z,30.33
2022-12-06T22:38:57.095Z,33.08
2022-12-06T22:41:26.230Z,37.22
2022-12-06T22:43:56.441Z,30.75
2022-12-06T22:46:26.522Z,28.80
2022-12-06T22:48:57.437Z,27.35
2022-12-06T22:51:28.104Z,27.80
2022-12-06T22:53:57.949Z,31.83
2022-12-06T22:56:26.847Z,29.90
2022-12-06T22:58:55.742Z,22.25
2022-12-06T23:01:26.027Z,17.10
2022-12-06T23:03:56.847Z,22.77
2022-12-06T23:06:26.705Z,23.48
2022-12-06T23:08:55.746Z,22.30
2022-12-06T23:11:25.846Z,24.23
2022-12-06T23:13:54.834Z,22.42
2022-12-06T23:16:25.051Z,21.40
2022-12-06T23:18:53.647Z,21.10
2022-12-06T23:21:25.335Z,19.97
2022-12-06T23:23:55.785Z,21.23
2022-12-06T23:26:26.371Z,21.77
2022-12-06T23:28:55.058Z,22.45
2022-12-06T23:31:24.950Z,22.27
2022-12-06T23:33:54.653Z,25.67
2022-12-06T23:36:26.406Z,22.67
2022-12-06T23:38:55.215Z,23.75
2022-12-06T23:41:25.285Z,22.23
2022-12-06T23:43:54.776Z,25.73
2022-12-06T23:46:25.301Z,23.48
2022-12-06T23:48:53.827Z,25.48
2022-12-06T23:51:25.472Z,23.45
2022-12-06T23:53:56.932Z,26.55
2022-12-06T23:56:26.546Z,23.33
